createdAt,value
2023-01-08T00:00:17.534Z,21.30
2023-01-08T00:01:24.238Z,21.50
2023-01-08T00:02:27.743Z,21.75
2023-01-08T00:03:30.525Z,22.52
2023-01-08T00:04:40.616Z,21.20
2023-01-08T00:05:44.259Z,20.60
2023-01-08T00:06:47.973Z,22.30
2023-01-08T00:07:50.445Z,22.83
2023-01-08T00:08:53.938Z,21.48
2023-01-08T00:10:02.560Z,21.83
2023-01-08T00:11:06.086Z,21.95
2023-01-08T00:12:15.525Z,21.23
2023-01-08T00:13:20.238Z,22.10
2023-01-08T00:14:29.723Z,22.95
2023-01-08T00:15:39.751Z,21.90
2023-01-08T00:16:48.618Z,22.08
2023-01-08T00:17:52.270Z,22.33
2023-01-08T00:18:55.822Z,22.65
2023-01-08T00:19:58.307Z,22.83
2023-01-08T00:21:02.288Z,22.38
2023-01-08T00:22:11.577Z,23.67
2023-01-08T00:23:21.787Z,23.67
2023-01-08T00:24:24.599Z,24.23
2023-01-08T00:25:28.153Z,25.10
2023-01-08T00:26:30.651Z,23.75
2023-01-08T00:27:40.556Z,24.73
2023-01-08T00:28:44.588Z,24.02
2023-01-08T00:29:48.067Z,24.38
2023-01-08T00:30:50.614Z,24.67
2023-01-08T00:31:54.102Z,23.75
2023-01-08T00:33:03.548Z,23.95
2023-01-08T00:34:07.076Z,23.00
2023-01-08T00:35:10.037Z,24.30
2023-01-08T00:36:14.522Z,24.20
2023-01-08T00:37:18.974Z,25.05
2023-01-08T00:38:28.582Z,27.35
2023-01-08T00:39:32.182Z,26.27
2023-01-08T00:40:35.069Z,26.85
2023-01-08T00:41:38.483Z,26.80
2023-01-08T00:42:41.032Z,28.13
2023-01-08T00:43:52.617Z,28.17
2023-01-08T00:44:55.149Z,27.52
2023-01-08T00:45:58.682Z,28.05
2023-01-08T00:47:01.271Z,27.92
2023-01-08T00:48:04.853Z,27.80
2023-01-08T00:49:13.580Z,27.45
2023-01-08T00:50:18.581Z,27.90
2023-01-08T00:51:27.567Z,26.92
2023-01-08T00:52:31.016Z,25.55
2023-01-08T00:53:33.792Z,28.17
2023-01-08T00:54:43.581Z,28.25
2023-01-08T00:55:46.219Z,27.65
2023-01-08T00:56:49.664Z,26.10
2023-01-08T00:57:52.177Z,27.52
2023-01-08T00:59:03.557Z,26.45
2023-01-08T01:00:14.561Z,27.85
2023-01-08T01:01:24.722Z,27.40
2023-01-08T01:02:27.874Z,27.75
2023-01-08T01:03:31.386Z,28.55
2023-01-08T01:04:34.074Z,28.52
2023-01-08T01:05:44.589Z,27.38
2023-01-08T01:06:48.046Z,28.08
2023-01-08T01:07:50.721Z,27.10
2023-01-08T01:08:54.184Z,29.23
2023-01-08T01:09:56.803Z,29.10
2023-01-08T01:11:06.562Z,27.95
2023-01-08T01:12:10.117Z,26.33
2023-01-08T01:13:12.623Z,26.80
2023-01-08T01:14:37.545Z,29.40
2023-01-08T01:15:40.169Z,26.20
2023-01-08T01:16:50.628Z,30.23
2023-01-08T01:17:53.222Z,27.88
2023-01-08T01:18:57.793Z,29.38
2023-01-08T01:20:00.400Z,27.65
2023-01-08T01:21:10.645Z,28.17
2023-01-08T01:22:13.216Z,29.13
2023-01-08T01:23:16.631Z,30.30
2023-01-08T01:24:19.127Z,28.95
2023-01-08T01:25:22.710Z,31.00
2023-01-08T01:26:32.544Z,30.33
2023-01-08T01:27:35.998Z,28.52
2023-01-08T01:28:45.570Z,28.92
2023-01-08T01:29:50.347Z,29.48
2023-01-08T01:30:56.463Z,30.35
2023-01-08T01:32:06.575Z,27.92
2023-01-08T01:33:09.099Z,29.98
2023-01-08T01:34:12.697Z,29.15
2023-01-08T01:35:15.331Z,29.95
2023-01-08T01:36:20.115Z,28.13
2023-01-08T01:37:29.569Z,29.95
2023-01-08T01:38:33.225Z,32.08
2023-01-08T01:39:35.713Z,31.63
2023-01-08T01:40:43.185Z,29.13
2023-01-08T01:41:52.569Z,29.50
2023-01-08T01:42:56.051Z,27.67
2023-01-08T01:43:59.596Z,30.83
2023-01-08T01:45:05.511Z,28.23
2023-01-08T01:46:17.035Z,31.30
2023-01-08T01:47:30.606Z,28.35
2023-01-08T01:48:33.196Z,30.67
2023-01-08T01:49:36.658Z,28.92
2023-01-08T01:50:41.106Z,30.13
2023-01-08T01:51:52.753Z,30.20
2023-01-08T01:53:05.599Z,30.98
2023-01-08T01:54:11.264Z,28.65
2023-01-08T01:55:14.512Z,29.42
2023-01-08T01:56:18.266Z,28.88
2023-01-08T01:57:20.972Z,28.55
2023-01-08T01:58:32.573Z,31.73
2023-01-08T01:59:35.154Z,29.25
2023-01-08T02:00:40.160Z,29.88
2023-01-08T02:01:43.403Z,29.75
2023-01-08T02:02:47.111Z,28.77
2023-01-08T02:03:56.615Z,30.98
2023-01-08T02:05:00.238Z,32.35
2023-01-08T02:06:05.484Z,30.20
2023-01-08T02:07:12.582Z,29.15
2023-01-08T02:08:19.472Z,30.70
2023-01-08T02:09:31.600Z,31.15
2023-01-08T02:10:37.459Z,32.90
2023-01-08T02:11:44.794Z,33.67
2023-01-08T02:12:49.137Z,33.97
2023-01-08T02:14:03.753Z,33.25
2023-01-08T02:15:24.699Z,31.38
2023-01-08T02:16:31.189Z,31.75
2023-01-08T02:17:41.850Z,32.42
2023-01-08T02:18:47.543Z,30.55
2023-01-08T02:19:53.377Z,31.83
2023-01-08T02:21:03.612Z,30.42
2023-01-08T02:22:13.881Z,31.05
2023-01-08T02:23:21.826Z,30.60
2023-01-08T02:24:31.551Z,34.03
2023-01-08T02:25:39.918Z,31.60
2023-01-08T02:26:53.610Z,30.90
2023-01-08T02:27:57.152Z,29.33
2023-01-08T02:29:01.642Z,31.08
2023-01-08T02:30:05.099Z,31.33
2023-01-08T02:31:09.344Z,30.10
2023-01-08T02:32:18.585Z,31.85
2023-01-08T02:33:22.020Z,33.63
2023-01-08T02:34:24.527Z,32.28
2023-01-08T02:35:35.399Z,32.60
2023-01-08T02:36:39.699Z,31.27
2023-01-08T02:37:50.610Z,31.85
2023-01-08T02:38:57.954Z,32.05
2023-01-08T02:40:05.399Z,31.33
2023-01-08T02:41:10.522Z,30.58
2023-01-08T02:42:18.429Z,31.20
2023-01-08T02:43:32.581Z,32.35
2023-01-08T02:44:39.357Z,31.95
2023-01-08T02:45:46.671Z,30.42
2023-01-08T02:46:51.128Z,27.55
2023-01-08T02:47:56.898Z,30.75
2023-01-08T02:49:08.555Z,32.45
2023-01-08T02:50:15.843Z,29.00
2023-01-08T02:51:20.572Z,29.60
2023-01-08T02:52:26.274Z,32.42
2023-01-08T02:53:36.573Z,29.48
2023-01-08T02:54:41.999Z,31.80
2023-01-08T02:55:47.014Z,30.05
2023-01-08T02:56:51.305Z,34.03
2023-01-08T02:57:56.397Z,31.63
2023-01-08T02:59:05.623Z,31.02
2023-01-08T03:00:09.638Z,32.40
2023-01-08T03:01:13.199Z,32.85
2023-01-08T03:02:17.555Z,33.33
2023-01-08T03:03:23.654Z,33.10
2023-01-08T03:04:34.686Z,33.97
2023-01-08T03:05:40.798Z,34.33
2023-01-08T03:06:43.573Z,30.85
2023-01-08T03:07:47.071Z,32.28
2023-01-08T03:08:52.241Z,34.22
2023-01-08T03:10:02.620Z,36.50
2023-01-08T03:11:07.482Z,33.40
2023-01-08T03:12:12.175Z,35.10
2023-01-08T03:13:19.087Z,34.78
2023-01-08T03:14:30.790Z,34.25
2023-01-08T03:15:51.606Z,33.53
2023-01-08T03:16:56.524Z,33.25
2023-01-08T03:18:02.730Z,33.58
2023-01-08T03:19:09.425Z,31.95
2023-01-08T03:20:21.624Z,33.50
2023-01-08T03:21:31.585Z,31.95
2023-01-08T03:22:37.462Z,32.03
2023-01-08T03:23:41.968Z,31.58
2023-01-08T03:24:46.849Z,31.92
2023-01-08T03:25:56.644Z,32.58
2023-01-08T03:27:01.489Z,31.42
2023-01-08T03:28:07.049Z,31.50
2023-01-08T03:29:13.404Z,32.22
2023-01-08T03:30:17.164Z,33.85
2023-01-08T03:31:27.618Z,32.83
2023-01-08T03:32:30.852Z,32.92
2023-01-08T03:33:34.900Z,32.40
2023-01-08T03:34:38.931Z,32.53
2023-01-08T03:35:43.441Z,30.58
2023-01-08T03:36:54.622Z,31.77
2023-01-08T03:37:59.899Z,31.05
2023-01-08T03:39:06.195Z,31.23
2023-01-08T03:40:10.561Z,31.15
2023-01-08T03:41:15.355Z,29.25
2023-01-08T03:42:25.583Z,30.20
2023-01-08T03:43:35.601Z,29.80
2023-01-08T03:44:39.456Z,29.88
2023-01-08T03:45:45.792Z,31.73
2023-01-08T03:46:56.675Z,30.55
2023-01-08T03:48:02.261Z,29.25
2023-01-08T03:49:11.569Z,30.33
2023-01-08T03:50:18.626Z,30.02
2023-01-08T03:51:21.103Z,29.67
2023-01-08T03:52:25.320Z,31.77
2023-01-08T03:53:34.598Z,29.63
2023-01-08T03:54:39.045Z,31.08
2023-01-08T03:55:41.541Z,30.95
2023-01-08T03:56:45.004Z,30.45
2023-01-08T03:57:47.612Z,32.10
2023-01-08T03:58:57.594Z,32.00
2023-01-08T04:00:07.590Z,30.90
2023-01-08T04:01:11.193Z,30.05
2023-01-08T04:02:14.242Z,30.10
2023-01-08T04:03:17.762Z,28.55
2023-01-08T04:04:20.344Z,30.35
2023-01-08T04:05:30.644Z,32.17
2023-01-08T04:06:33.246Z,29.25
2023-01-08T04:07:36.819Z,30.38
2023-01-08T04:08:39.410Z,30.17
2023-01-08T04:09:42.947Z,30.92
2023-01-08T04:10:51.633Z,31.05
2023-01-08T04:11:55.047Z,28.88
2023-01-08T04:12:57.543Z,28.33
2023-01-08T04:14:07.727Z,28.17
2023-01-08T04:15:25.583Z,27.95
2023-01-08T04:16:34.649Z,29.35
2023-01-08T04:17:38.088Z,28.83
2023-01-08T04:18:40.667Z,26.95
2023-01-08T04:19:44.208Z,29.80
2023-01-08T04:20:46.797Z,26.25
2023-01-08T04:21:58.597Z,30.05
2023-01-08T04:23:01.213Z,28.92
2023-01-08T04:24:04.783Z,28.25
2023-01-08T04:25:07.525Z,29.63
2023-01-08T04:26:17.596Z,30.45
2023-01-08T04:27:26.615Z,28.80
2023-01-08T04:28:30.032Z,27.92
2023-01-08T04:29:38.599Z,29.65
2023-01-08T04:30:43.519Z,27.83
2023-01-08T04:31:52.586Z,30.50
2023-01-08T04:32:56.122Z,27.83
2023-01-08T04:33:58.836Z,28.80
2023-01-08T04:35:02.292Z,29.17
2023-01-08T04:36:05.337Z,28.95
2023-01-08T04:37:15.592Z,30.00
2023-01-08T04:38:18.095Z,29.77
2023-01-08T04:39:21.604Z,30.25
2023-01-08T04:40:30.576Z,28.27
2023-01-08T04:41:40.609Z,28.02
2023-01-08T04:42:44.096Z,28.30
2023-01-08T04:43:46.698Z,30.63
2023-01-08T04:44:50.241Z,28.58
2023-01-08T04:45:54.085Z,29.60
2023-01-08T04:47:04.596Z,29.77
2023-01-08T04:48:07.400Z,28.92
2023-01-08T04:49:11.775Z,28.10
2023-01-08T04:50:20.642Z,29.60
2023-01-08T04:51:25.891Z,27.95
2023-01-08T04:52:28.866Z,29.55
2023-01-08T04:53:34.873Z,30.00
2023-01-08T04:54:37.394Z,29.45
2023-01-08T04:55:47.974Z,29.63
2023-01-08T04:56:51.840Z,28.17
2023-01-08T04:57:55.280Z,28.10
2023-01-08T04:58:57.841Z,29.48
2023-01-08T05:00:01.239Z,28.60
2023-01-08T05:01:18.747Z,28.50
2023-01-08T05:02:25.684Z,29.35
2023-01-08T05:03:28.464Z,28.20
2023-01-08T05:04:32.100Z,30.08
2023-01-08T05:05:35.407Z,29.60
2023-01-08T05:06:45.596Z,28.75
2023-01-08T05:07:48.105Z,30.08
2023-01-08T05:08:51.715Z,29.17
2023-01-08T05:10:00.618Z,29.77
2023-01-08T05:11:04.307Z,29.20
2023-01-08T05:12:06.920Z,28.48
2023-01-08T05:13:10.360Z,28.20
2023-01-08T05:14:26.683Z,27.15
2023-01-08T05:15:36.969Z,26.15
2023-01-08T05:16:40.846Z,27.10
2023-01-08T05:17:44.307Z,28.85
2023-01-08T05:18:53.622Z,29.92
2023-01-08T05:19:57.087Z,28.80
2023-01-08T05:21:01.714Z,28.23
2023-01-08T05:22:11.609Z,29.42
2023-01-08T05:23:14.115Z,28.42
2023-01-08T05:24:17.551Z,30.73
2023-01-08T05:25:20.079Z,29.73
2023-01-08T05:26:23.618Z,28.55
2023-01-08T05:27:33.035Z,29.60
2023-01-08T05:28:36.551Z,29.15
2023-01-08T05:29:45.598Z,28.33
2023-01-08T05:30:51.216Z,28.38
2023-01-08T05:31:55.017Z,28.27
2023-01-08T05:32:58.469Z,27.35
2023-01-08T05:34:01.010Z,28.45
2023-01-08T05:35:10.638Z,29.23
2023-01-08T05:36:20.621Z,27.92
2023-01-08T05:37:24.151Z,29.85
2023-01-08T05:38:33.603Z,29.05
2023-01-08T05:39:37.083Z,28.58
2023-01-08T05:40:39.669Z,29.08
2023-01-08T05:41:43.096Z,29.60
2023-01-08T05:42:45.597Z,29.38
2023-01-08T05:43:55.609Z,30.85
2023-01-08T05:44:59.094Z,29.98
2023-01-08T05:46:01.901Z,29.25
2023-01-08T05:47:06.746Z,29.90
2023-01-08T05:48:09.332Z,27.77
2023-01-08T05:49:19.598Z,31.27
2023-01-08T05:50:22.076Z,31.27
2023-01-08T05:51:25.503Z,30.70
2023-01-08T05:52:28.696Z,29.70
2023-01-08T05:53:39.605Z,31.73
2023-01-08T05:54:42.271Z,32.40
2023-01-08T05:55:45.687Z,30.63
2023-01-08T05:56:48.228Z,30.33
2023-01-08T05:57:58.651Z,29.08
2023-01-08T05:59:02.237Z,32.63
2023-01-08T06:00:05.281Z,31.35
2023-01-08T06:01:10.333Z,30.02
2023-01-08T06:02:14.201Z,31.00
2023-01-08T06:03:24.592Z,30.40
2023-01-08T06:04:27.238Z,30.88
2023-01-08T06:05:31.802Z,33.03
2023-01-08T06:06:40.620Z,32.10
2023-01-08T06:07:44.058Z,31.52
2023-01-08T06:08:53.664Z,32.25
2023-01-08T06:09:56.160Z,29.55
2023-01-08T06:11:01.659Z,32.40
2023-01-08T06:12:04.289Z,33.78
2023-01-08T06:13:08.798Z,33.67
2023-01-08T06:14:17.629Z,32.92
2023-01-08T06:15:27.749Z,33.10
2023-01-08T06:16:30.281Z,33.60
2023-01-08T06:17:36.480Z,31.90
2023-01-08T06:18:39.027Z,33.90
2023-01-08T06:19:48.612Z,34.58
2023-01-08T06:20:57.664Z,35.03
2023-01-08T06:22:01.153Z,33.85
2023-01-08T06:23:03.755Z,33.47
2023-01-08T06:24:07.555Z,36.28
2023-01-08T06:25:10.136Z,35.67
2023-01-08T06:26:20.653Z,35.22
2023-01-08T06:27:23.181Z,35.13
2023-01-08T06:28:27.049Z,37.08
2023-01-08T06:29:29.548Z,33.60
2023-01-08T06:30:32.989Z,36.40
2023-01-08T06:31:42.656Z,37.22
2023-01-08T06:32:53.627Z,35.80
2023-01-08T06:33:56.170Z,35.42
2023-01-08T06:34:59.607Z,36.28
2023-01-08T06:36:02.506Z,38.00
2023-01-08T06:37:12.651Z,36.63
2023-01-08T06:38:15.128Z,33.47
2023-01-08T06:39:18.554Z,35.63
2023-01-08T06:40:22.047Z,35.78
2023-01-08T06:41:24.568Z,34.63
2023-01-08T06:42:34.625Z,34.72
2023-01-08T06:43:37.575Z,35.35
2023-01-08T06:44:41.050Z,34.78
2023-01-08T06:45:43.567Z,34.58
2023-01-08T06:46:53.727Z,32.63
2023-01-08T06:48:08.647Z,34.17
2023-01-08T06:49:13.910Z,35.30
2023-01-08T06:50:16.470Z,35.38
2023-01-08T06:51:19.901Z,34.92
2023-01-08T06:52:28.633Z,36.05
2023-01-08T06:53:32.432Z,36.88
2023-01-08T06:54:34.975Z,35.95
2023-01-08T06:55:38.776Z,36.67
2023-01-08T06:56:53.086Z,36.65
2023-01-08T06:58:03.609Z,37.00
2023-01-08T06:59:07.493Z,36.33
2023-01-08T07:00:17.633Z,37.42
2023-01-08T07:01:23.093Z,38.25
2023-01-08T07:02:25.950Z,39.38
2023-01-08T07:03:37.659Z,38.33
2023-01-08T07:04:40.277Z,36.20
2023-01-08T07:05:43.694Z,37.30
2023-01-08T07:06:52.641Z,37.80
2023-01-08T07:07:56.255Z,34.88
2023-01-08T07:08:58.777Z,37.42
2023-01-08T07:10:08.615Z,38.55
2023-01-08T07:11:11.578Z,37.95
2023-01-08T07:12:21.625Z,37.40
2023-01-08T07:13:25.019Z,37.45
2023-01-08T07:14:48.625Z,37.72
2023-01-08T07:15:57.646Z,34.78
2023-01-08T07:17:01.139Z,36.75
2023-01-08T07:18:12.621Z,35.55
2023-01-08T07:19:17.345Z,35.22
2023-01-08T07:20:19.886Z,36.50
2023-01-08T07:21:23.549Z,38.10
2023-01-08T07:22:32.634Z,37.35
2023-01-08T07:23:38.445Z,38.42
2023-01-08T07:24:41.021Z,36.60
2023-01-08T07:25:44.660Z,35.72
2023-01-08T07:26:54.649Z,35.90
2023-01-08T07:27:57.248Z,36.22
2023-01-08T07:29:00.744Z,36.67
2023-01-08T07:30:04.250Z,36.40
2023-01-08T07:31:07.239Z,36.10
2023-01-08T07:32:17.632Z,36.90
2023-01-08T07:33:21.169Z,36.92
2023-01-08T07:34:31.614Z,36.40
2023-01-08T07:35:35.663Z,34.40
2023-01-08T07:36:39.204Z,36.35
2023-01-08T07:37:42.125Z,35.05
2023-01-08T07:38:45.525Z,36.33
2023-01-08T07:39:54.643Z,35.83
2023-01-08T07:40:59.238Z,33.55
2023-01-08T07:42:02.728Z,34.47
2023-01-08T07:43:06.736Z,34.85
2023-01-08T07:44:10.257Z,32.67
2023-01-08T07:45:19.672Z,34.88
2023-01-08T07:46:23.894Z,35.35
2023-01-08T07:47:26.428Z,34.70
2023-01-08T07:48:29.850Z,35.13
2023-01-08T07:49:41.674Z,35.28
2023-01-08T07:50:44.495Z,36.83
2023-01-08T07:51:48.011Z,36.28
2023-01-08T07:52:50.628Z,36.20
2023-01-08T07:53:56.350Z,35.47
2023-01-08T07:55:05.615Z,36.85
2023-01-08T07:56:17.583Z,33.20
2023-01-08T07:57:21.196Z,34.60
2023-01-08T07:58:23.702Z,35.65
2023-01-08T07:59:27.112Z,36.38
2023-01-08T08:00:29.675Z,37.03
2023-01-08T08:01:39.822Z,35.92
2023-01-08T08:02:42.715Z,36.95
2023-01-08T08:03:46.534Z,36.20
2023-01-08T08:04:50.807Z,37.70
2023-01-08T08:05:54.244Z,35.83
2023-01-08T08:07:03.636Z,37.10
2023-01-08T08:08:10.573Z,35.78
2023-01-08T08:09:14.082Z,37.35
2023-01-08T08:10:16.928Z,37.00
2023-01-08T08:11:20.345Z,36.75
2023-01-08T08:12:30.653Z,36.03
2023-01-08T08:13:40.637Z,37.92
2023-01-08T08:15:03.604Z,35.00
2023-01-08T08:16:07.873Z,36.35
2023-01-08T08:17:10.393Z,37.00
2023-01-08T08:18:20.632Z,37.83
2023-01-08T08:19:24.092Z,38.20
2023-01-08T08:20:29.364Z,36.63
2023-01-08T08:21:33.086Z,38.95
2023-01-08T08:22:35.583Z,38.13
2023-01-08T08:23:45.643Z,37.38
2023-01-08T08:24:48.149Z,37.28
2023-01-08T08:25:52.167Z,38.88
2023-01-08T08:26:54.690Z,36.53
2023-01-08T08:27:59.107Z,37.65
2023-01-08T08:29:08.682Z,38.90
2023-01-08T08:30:12.933Z,39.00
2023-01-08T08:31:16.449Z,37.72
2023-01-08T08:32:19.008Z,37.25
2023-01-08T08:33:22.508Z,35.60
2023-01-08T08:34:31.660Z,37.78
2023-01-08T08:35:36.780Z,36.33
2023-01-08T08:36:39.301Z,37.83
2023-01-08T08:37:42.791Z,38.97
2023-01-08T08:38:46.227Z,36.95
2023-01-08T08:39:56.611Z,36.78
2023-01-08T08:41:05.635Z,38.53
2023-01-08T08:42:09.115Z,37.63
2023-01-08T08:43:12.746Z,36.47
2023-01-08T08:44:16.179Z,37.40
2023-01-08T08:45:26.652Z,36.60
2023-01-08T08:46:31.028Z,36.28
2023-01-08T08:47:33.530Z,35.67
2023-01-08T08:48:36.991Z,37.20
2023-01-08T08:49:40.110Z,36.05
2023-01-08T08:50:51.637Z,33.50
2023-01-08T08:51:55.038Z,34.38
2023-01-08T08:52:59.878Z,36.10
2023-01-08T08:54:03.380Z,36.20
2023-01-08T08:55:07.013Z,36.60
2023-01-08T08:56:16.674Z,35.42
2023-01-08T08:57:25.629Z,36.17
2023-01-08T08:58:29.080Z,35.22
2023-01-08T08:59:31.686Z,35.90
2023-01-08T09:00:41.626Z,33.75
2023-01-08T09:01:44.298Z,34.63
2023-01-08T09:02:54.758Z,36.22
2023-01-08T09:03:58.291Z,35.45
2023-01-08T09:05:01.521Z,35.25
2023-01-08T09:06:06.466Z,34.78
2023-01-08T09:07:08.990Z,35.97
2023-01-08T09:08:18.617Z,35.75
2023-01-08T09:09:22.042Z,34.83
2023-01-08T09:10:25.727Z,32.65
2023-01-08T09:11:29.291Z,34.55
2023-01-08T09:12:31.874Z,34.85
2023-01-08T09:13:41.647Z,34.30
2023-01-08T09:15:05.618Z,34.53
2023-01-08T09:16:16.146Z,34.50
2023-01-08T09:17:19.268Z,33.08
2023-01-08T09:18:22.748Z,34.67
2023-01-08T09:19:32.618Z,34.10
2023-01-08T09:20:36.059Z,32.83
2023-01-08T09:21:41.296Z,34.75
2023-01-08T09:22:43.825Z,33.42
2023-01-08T09:23:56.645Z,34.10
2023-01-08T09:25:06.682Z,30.90
2023-01-08T09:26:10.678Z,34.78
2023-01-08T09:27:13.287Z,34.38
2023-01-08T09:28:17.376Z,33.40
2023-01-08T09:29:27.648Z,32.88
2023-01-08T09:30:31.424Z,34.13
2023-01-08T09:31:35.051Z,35.42
2023-01-08T09:32:39.038Z,36.47
2023-01-08T09:33:41.596Z,35.13
2023-01-08T09:34:51.666Z,35.08
2023-01-08T09:35:55.081Z,33.10
2023-01-08T09:37:00.140Z,34.58
2023-01-08T09:38:03.587Z,34.08
2023-01-08T09:39:07.047Z,32.50
2023-01-08T09:40:17.640Z,32.08
2023-01-08T09:41:29.640Z,31.63
2023-01-08T09:42:33.544Z,31.65
2023-01-08T09:43:37.777Z,34.80
2023-01-08T09:44:42.520Z,33.60
2023-01-08T09:45:53.631Z,33.10
2023-01-08T09:46:58.029Z,32.42
2023-01-08T09:48:04.048Z,33.08
2023-01-08T09:49:08.716Z,32.08
2023-01-08T09:50:14.036Z,32.78
2023-01-08T09:51:24.657Z,33.03
2023-01-08T09:52:29.749Z,31.48
2023-01-08T09:53:35.296Z,32.75
2023-01-08T09:54:38.747Z,32.05
2023-01-08T09:55:42.659Z,33.28
2023-01-08T09:56:52.636Z,33.30
2023-01-08T09:57:56.112Z,31.67
2023-01-08T09:59:01.065Z,32.40
2023-01-08T10:00:05.312Z,33.70
2023-01-08T10:01:15.894Z,33.15
2023-01-08T10:02:19.659Z,33.97
2023-01-08T10:03:24.713Z,36.17
2023-01-08T10:04:28.361Z,36.78
2023-01-08T10:05:30.888Z,36.30
2023-01-08T10:06:41.618Z,36.92
2023-01-08T10:07:45.846Z,33.58
2023-01-08T10:08:49.284Z,38.58
2023-01-08T10:09:59.641Z,34.88
2023-01-08T10:11:02.236Z,32.25
2023-01-08T10:12:13.678Z,35.55
2023-01-08T10:13:16.349Z,32.42
2023-01-08T10:14:23.116Z,33.60
2023-01-08T10:15:33.793Z,32.22
2023-01-08T10:16:44.022Z,32.40
2023-01-08T10:17:55.670Z,33.10
2023-01-08T10:18:59.961Z,32.60
2023-01-08T10:20:02.559Z,33.13
2023-01-08T10:21:06.213Z,32.83
2023-01-08T10:22:13.027Z,34.00
2023-01-08T10:23:25.727Z,35.05
2023-01-08T10:24:37.060Z,37.92
2023-01-08T10:25:53.985Z,35.15
2023-01-08T10:27:13.931Z,33.10
2023-01-08T10:28:20.662Z,36.88
2023-01-08T10:29:30.651Z,33.85
2023-01-08T10:30:36.709Z,31.83
2023-01-08T10:31:58.695Z,32.45
2023-01-08T10:33:05.861Z,33.00
2023-01-08T10:34:10.807Z,35.08
2023-01-08T10:35:24.671Z,34.42
2023-01-08T10:36:28.152Z,32.75
2023-01-08T10:37:34.811Z,31.90
2023-01-08T10:38:47.644Z,31.45
2023-01-08T10:39:51.693Z,32.25
2023-01-08T10:40:55.371Z,34.45
2023-01-08T10:41:59.043Z,32.80
2023-01-08T10:43:14.636Z,32.97
2023-01-08T10:44:19.511Z,32.70
2023-01-08T10:45:23.870Z,31.60
2023-01-08T10:46:29.230Z,31.77
2023-01-08T10:47:40.667Z,30.27
2023-01-08T10:48:47.633Z,32.30
2023-01-08T10:49:51.312Z,31.05
2023-01-08T10:51:11.711Z,29.23
2023-01-08T10:52:25.411Z,30.05
2023-01-08T10:53:30.880Z,29.92
2023-01-08T10:54:37.355Z,30.10
2023-01-08T10:55:40.804Z,30.17
2023-01-08T10:56:51.659Z,33.78
2023-01-08T10:57:56.376Z,32.15
2023-01-08T10:58:59.968Z,33.53
2023-01-08T11:00:04.117Z,31.83
2023-01-08T11:01:11.010Z,30.75
2023-01-08T11:02:27.716Z,30.75
2023-01-08T11:03:39.636Z,30.95
2023-01-08T11:04:49.630Z,31.70
2023-01-08T11:05:53.217Z,30.40
2023-01-08T11:06:59.991Z,30.52
2023-01-08T11:08:12.693Z,30.90
2023-01-08T11:09:19.431Z,30.95
2023-01-08T11:10:25.827Z,30.13
2023-01-08T11:11:34.054Z,31.15
2023-01-08T11:12:39.865Z,29.30
2023-01-08T11:13:49.656Z,30.23
2023-01-08T11:14:53.126Z,30.92
2023-01-08T11:16:11.669Z,30.33
2023-01-08T11:17:21.872Z,29.52
2023-01-08T11:18:27.095Z,29.90
2023-01-08T11:19:38.653Z,30.98
2023-01-08T11:20:43.183Z,31.75
2023-01-08T11:21:56.442Z,31.83
2023-01-08T11:23:11.813Z,30.60
2023-01-08T11:24:19.560Z,30.70
2023-01-08T11:25:24.947Z,29.15
2023-01-08T11:26:30.051Z,31.00
2023-01-08T11:27:34.670Z,30.67
2023-01-08T11:28:51.832Z,30.77
2023-01-08T11:30:00.052Z,29.63
2023-01-08T11:31:09.115Z,28.20
2023-01-08T11:32:30.222Z,29.58
2023-01-08T11:33:34.763Z,29.10
2023-01-08T11:34:47.676Z,30.23
2023-01-08T11:35:52.293Z,30.67
2023-01-08T11:36:58.701Z,31.77
2023-01-08T11:38:03.029Z,31.85
2023-01-08T11:39:07.021Z,31.38
2023-01-08T11:40:21.822Z,30.58
2023-01-08T11:41:36.555Z,32.15
2023-01-08T11:42:47.913Z,31.25
2023-01-08T11:43:59.079Z,30.75
2023-01-08T11:45:09.149Z,32.53
2023-01-08T11:46:27.116Z,30.25
2023-01-08T11:47:41.466Z,29.77
2023-01-08T11:48:55.815Z,29.95
2023-01-08T11:50:07.522Z,31.15
2023-01-08T11:51:42.665Z,30.20
2023-01-08T11:52:50.418Z,28.33
2023-01-08T11:53:59.627Z,29.95
2023-01-08T11:55:17.634Z,30.90
2023-01-08T11:56:22.531Z,29.27
2023-01-08T11:57:39.616Z,30.75
2023-01-08T11:58:51.405Z,30.15
2023-01-08T12:00:00.191Z,32.90
2023-01-08T12:01:20.099Z,32.58
2023-01-08T12:02:26.172Z,31.30
2023-01-08T12:03:46.635Z,32.22
2023-01-08T12:05:03.417Z,31.38
2023-01-08T12:06:11.473Z,31.13
2023-01-08T12:07:20.351Z,31.45
2023-01-08T12:08:36.690Z,33.08
2023-01-08T12:09:42.347Z,31.85
2023-01-08T12:10:49.901Z,31.38
2023-01-08T12:11:55.433Z,31.30
2023-01-08T12:13:07.321Z,28.95
2023-01-08T12:14:39.664Z,32.92
2023-01-08T12:16:09.646Z,28.15
2023-01-08T12:17:23.524Z,28.98
2023-01-08T12:18:36.623Z,29.52
2023-01-08T12:19:53.637Z,30.77
2023-01-08T12:20:58.980Z,31.15
2023-01-08T12:22:19.681Z,30.65
2023-01-08T12:23:29.601Z,29.33
2023-01-08T12:24:41.102Z,30.08
2023-01-08T12:26:05.666Z,29.92
2023-01-08T12:27:13.571Z,29.58
2023-01-08T12:28:28.996Z,30.52
2023-01-08T12:29:53.272Z,30.55
2023-01-08T12:31:11.731Z,29.17
2023-01-08T12:32:25.157Z,27.85
2023-01-08T12:33:33.921Z,29.33
2023-01-08T12:34:40.938Z,30.35
2023-01-08T12:35:47.892Z,29.42
2023-01-08T12:36:58.626Z,28.95
2023-01-08T12:38:04.471Z,29.67
2023-01-08T12:39:10.843Z,30.38
2023-01-08T12:40:19.631Z,31.95
2023-01-08T12:41:23.108Z,27.10
2023-01-08T12:42:35.637Z,30.95
2023-01-08T12:43:44.052Z,31.42
2023-01-08T12:44:47.337Z,30.80
2023-01-08T12:45:52.706Z,30.08
2023-01-08T12:47:02.633Z,28.17
2023-01-08T12:48:14.755Z,31.90
2023-01-08T12:49:23.211Z,28.02
2023-01-08T12:50:43.155Z,29.73
2023-01-08T12:51:51.940Z,28.77
2023-01-08T12:52:57.725Z,30.30
2023-01-08T12:54:12.667Z,30.27
2023-01-08T12:55:20.253Z,31.52
2023-01-08T12:56:31.840Z,29.23
2023-01-08T12:57:36.886Z,29.98
2023-01-08T12:58:56.043Z,29.20
2023-01-08T13:00:08.725Z,31.55
2023-01-08T13:01:18.655Z,29.00
2023-01-08T13:02:28.012Z,31.05
2023-01-08T13:03:32.380Z,30.80
2023-01-08T13:04:42.721Z,31.33
2023-01-08T13:05:51.671Z,30.75
2023-01-08T13:06:58.830Z,31.25
2023-01-08T13:08:04.636Z,29.13
2023-01-08T13:09:08.183Z,31.60
2023-01-08T13:10:28.679Z,30.80
2023-01-08T13:11:40.680Z,30.85
2023-01-08T13:12:44.393Z,31.88
2023-01-08T13:13:47.929Z,32.88
2023-01-08T13:14:53.917Z,31.25
2023-01-08T13:16:17.734Z,32.45
2023-01-08T13:17:24.920Z,30.35
2023-01-08T13:18:27.534Z,30.33
2023-01-08T13:19:31.795Z,31.80
2023-01-08T13:20:41.702Z,31.65
2023-01-08T13:21:46.851Z,31.63
2023-01-08T13:22:54.501Z,32.45
2023-01-08T13:24:01.235Z,31.35
2023-01-08T13:25:23.268Z,33.53
2023-01-08T13:26:39.680Z,30.95
2023-01-08T13:27:43.355Z,32.03
2023-01-08T13:28:47.056Z,31.77
2023-01-08T13:29:51.034Z,31.17
2023-01-08T13:30:57.143Z,31.83
2023-01-08T13:32:08.680Z,31.67
2023-01-08T13:33:26.217Z,33.17
2023-01-08T13:34:38.851Z,32.15
2023-01-08T13:35:42.354Z,32.13
2023-01-08T13:37:02.702Z,32.58
2023-01-08T13:38:22.250Z,35.45
2023-01-08T13:39:25.547Z,32.97
2023-01-08T13:40:50.653Z,33.30
2023-01-08T13:42:07.687Z,32.78
2023-01-08T13:43:15.318Z,33.38
2023-01-08T13:44:30.722Z,33.08
2023-01-08T13:45:33.720Z,32.75
2023-01-08T13:46:41.029Z,33.85
2023-01-08T13:47:46.428Z,33.20
2023-01-08T13:48:50.470Z,33.85
2023-01-08T13:50:01.772Z,33.88
2023-01-08T13:51:05.515Z,34.00
2023-01-08T13:52:09.019Z,33.42
2023-01-08T13:53:13.696Z,33.17
2023-01-08T13:54:25.738Z,30.67
2023-01-08T13:55:37.762Z,34.20
2023-01-08T13:56:41.071Z,34.47
2023-01-08T13:57:45.917Z,34.58
2023-01-08T13:58:54.983Z,34.83
2023-01-08T13:59:59.887Z,34.80
2023-01-08T14:01:10.784Z,34.63
2023-01-08T14:02:25.480Z,34.03
2023-01-08T14:03:29.677Z,32.58
2023-01-08T14:04:32.281Z,33.85
2023-01-08T14:05:43.725Z,33.97
2023-01-08T14:06:47.257Z,36.05
2023-01-08T14:07:50.809Z,33.13
2023-01-08T14:08:55.618Z,34.20
2023-01-08T14:10:08.521Z,34.95
2023-01-08T14:11:18.684Z,34.75
2023-01-08T14:12:23.481Z,32.28
2023-01-08T14:13:28.664Z,33.90
2023-01-08T14:14:32.251Z,32.88
2023-01-08T14:15:49.696Z,34.75
2023-01-08T14:16:59.963Z,33.75
2023-01-08T14:18:06.837Z,34.78
2023-01-08T14:19:15.681Z,35.15
2023-01-08T14:20:23.038Z,34.75
2023-01-08T14:21:26.935Z,37.33
2023-01-08T14:22:39.661Z,34.67